Time;durP1;ratioP1;P1;durP2;ratioP2;P2;SDS_P1;SDS_P2;PMS_P1;PMS_P2;Temp;Humidity;BMP_temperature;BMP_pressure;BME280_temperature;BME280_humidity;BME280_pressure;Samples;Min_cycle;Max_cycle;Signal;HPM_P1;HPM_P2
2021/03/07 00:00:28;;;;;;;9.27;5.33;;;;;;;-1.08;61.59;100444.16;1805009;79;21141;-62
2021/03/07 00:02:56;;;;;;;6.80;4.73;;;;;;;-1.06;61.69;100447.98;1805002;79;21211;-62
2021/03/07 00:05:23;;;;;;;8.10;5.57;;;;;;;-1.06;62.00;100436.93;1804914;79;21207;-61
2021/03/07 00:07:52;;;;;;;8.80;5.10;;;;;;;-1.10;62.34;100425.49;1805042;79;21184;-61
2021/03/07 00:10:22;;;;;;;8.00;5.30;;;;;;;-1.12;62.47;100430.12;1805083;79;21554;-62
2021/03/07 00:12:50;;;;;;;5.17;3.77;;;;;;;-1.17;62.97;100420.03;1804995;79;21084;-64
2021/03/07 00:15:19;;;;;;;8.17;5.63;;;;;;;-1.20;63.45;100419.53;1804974;79;21227;-61
2021/03/07 00:17:47;;;;;;;15.77;6.67;;;;;;;-1.28;63.61;100413.69;1805092;79;21593;-62
2021/03/07 00:20:17;;;;;;;9.73;6.47;;;;;;;-1.27;63.61;100414.03;1804942;79;21098;-66
2021/03/07 00:22:45;;;;;;;7.33;4.97;;;;;;;-1.26;63.79;100407.78;1804961;79;21160;-63
2021/03/07 00:25:15;;;;;;;8.43;6.30;;;;;;;-1.25;63.95;100405.48;1804977;79;21593;-63
2021/03/07 00:27:44;;;;;;;10.97;6.30;;;;;;;-1.24;63.92;100403.16;1804881;79;21192;-63
2021/03/07 00:30:14;;;;;;;8.57;6.50;;;;;;;-1.18;63.85;100389.34;1804908;79;21176;-63
2021/03/07 00:32:42;;;;;;;10.10;6.40;;;;;;;-1.12;63.72;100390.53;1805115;79;21172;-63
2021/03/07 00:35:11;;;;;;;8.67;5.30;;;;;;;-1.07;63.71;100386.44;1805054;79;21553;-61
2021/03/07 00:37:40;;;;;;;8.37;6.10;;;;;;;-1.04;63.63;100374.23;1805022;79;21132;-62
2021/03/07 00:40:10;;;;;;;12.93;7.07;;;;;;;-1.02;63.53;100373.59;1805033;79;21374;-62
2021/03/07 00:42:45;;;;;;;11.47;6.17;;;;;;;-0.97;63.54;100362.55;1804970;79;21048;-62
2021/03/07 00:45:15;;;;;;;13.23;7.83;;;;;;;-0.97;63.61;100373.12;1805009;79;21125;-61
2021/03/07 00:47:42;;;;;;;10.43;7.00;;;;;;;-1.01;63.67;100365.98;1805056;79;21551;-63
2021/03/07 00:50:20;;;;;;;9.70;6.30;;;;;;;-1.04;63.81;100353.60;1805028;79;21549;-62
2021/03/07 00:52:48;;;;;;;13.43;7.00;;;;;;;-1.02;63.94;100351.16;1805045;79;21598;-60
2021/03/07 00:55:16;;;;;;;10.40;6.70;;;;;;;-1.02;63.96;100344.55;1804932;79;21535;-61
2021/03/07 00:57:43;;;;;;;14.17;7.50;;;;;;;-0.98;64.04;100338.45;1804926;79;21144;-61
2021/03/07 01:00:17;;;;;;;11.93;7.80;;;;;;;-1.03;64.12;100331.51;1804991;79;21152;-62
2021/03/07 01:02:46;;;;;;;15.13;7.90;;;;;;;-1.04;64.29;100320.61;1805018;79;21112;-63
2021/03/07 01:05:14;;;;;;;19.13;8.97;;;;;;;-1.04;64.31;100320.61;1805094;79;21371;-62
2021/03/07 01:07:42;;;;;;;16.07;7.77;;;;;;;-1.02;64.42;100315.52;1805220;79;21641;-62
2021/03/07 01:10:25;;;;;;;9.87;6.50;;;;;;;-1.03;64.48;100315.67;1805059;79;21116;-62
2021/03/07 01:12:53;;;;;;;10.08;7.25;;;;;;;-1.03;64.53;100310.39;1805282;79;21117;-62
2021/03/07 01:15:22;;;;;;;9.30;7.13;;;;;;;-1.04;64.66;100303.45;1805125;79;21184;-62
2021/03/07 01:17:51;;;;;;;12.70;7.67;;;;;;;-1.08;64.77;100305.59;1805101;79;21000;-62
2021/03/07 01:20:19;;;;;;;14.17;9.37;;;;;;;-1.10;64.83;100294.35;1805052;79;22097;-62
2021/03/07 01:22:49;;;;;;;11.63;8.43;;;;;;;-1.13;64.91;100288.09;1804114;79;21112;-63
2021/03/07 01:25:22;;;;;;;16.00;7.63;;;;;;;-1.12;65.06;100283.64;1805483;78;21175;-63
2021/03/07 01:27:49;;;;;;;9.65;6.95;;;;;;;-1.12;65.20;100288.91;1809159;79;21111;-62
2021/03/07 01:30:19;;;;;;;13.63;7.63;;;;;;;-1.15;65.31;100287.92;1809000;79;21208;-61
2021/03/07 01:32:47;;;;;;;14.73;8.13;;;;;;;-1.17;65.30;100278.84;1808938;79;21128;-62
2021/03/07 01:35:16;;;;;;;13.60;9.17;;;;;;;-1.15;65.35;100278.69;1809185;79;21606;-62
2021/03/07 01:37:46;;;;;;;15.37;7.53;;;;;;;-1.16;65.39;100262.02;1809155;79;21558;-62
2021/03/07 01:40:20;;;;;;;18.53;8.07;;;;;;;-1.17;65.48;100263.50;1809108;79;21133;-62
2021/03/07 01:42:50;;;;;;;17.27;8.07;;;;;;;-1.17;65.56;100269.61;1809045;79;21438;-62
2021/03/07 01:45:22;;;;;;;21.93;8.00;;;;;;;-1.19;65.67;100266.28;1809010;79;21613;-62
2021/03/07 01:47:54;;;;;;;23.47;8.78;;;;;;;-1.24;65.85;100269.06;1809148;79;21100;-63
2021/03/07 01:50:24;;;;;;;13.40;8.37;;;;;;;-1.25;65.98;100267.44;1808913;79;21112;-64
2021/03/07 01:52:52;;;;;;;10.47;6.60;;;;;;;-1.26;66.05;100262.65;1809095;79;21097;-61
2021/03/07 01:55:23;;;;;;;13.00;7.03;;;;;;;-1.25;66.15;100263.48;1809134;79;22363;-61
2021/03/07 01:57:58;;;;;;;13.87;7.93;;;;;;;-1.25;66.21;100256.89;1808696;79;21026;-62
2021/03/07 02:00:26;;;;;;;14.50;6.60;;;;;;;-1.26;66.22;100260.02;1809040;79;21089;-62
2021/03/07 02:02:55;;;;;;;12.80;7.07;;;;;;;-1.26;66.30;100247.31;1808948;79;21183;-62
2021/03/07 02:05:23;;;;;;;10.20;6.70;;;;;;;-1.27;66.34;100247.80;1808928;79;21569;-62
2021/03/07 02:07:50;;;;;;;10.63;6.33;;;;;;;-1.26;66.43;100240.71;1781838;79;21303;-61
2021/03/07 02:10:31;;;;;;;9.43;6.13;;;;;;;-1.23;66.44;100235.10;1808822;79;20998;-63
2021/03/07 02:13:02;;;;;;;13.20;6.73;;;;;;;-1.23;66.38;100232.46;1809027;79;21570;-62
2021/03/07 02:15:31;;;;;;;10.50;6.90;;;;;;;-1.24;66.43;100238.23;1809137;79;21553;-63
2021/03/07 02:17:59;;;;;;;11.70;7.87;;;;;;;-1.23;66.44;100229.83;1781703;79;21558;-63
2021/03/07 02:20:28;;;;;;;8.53;6.47;;;;;;;-1.22;66.49;100231.48;1782041;79;21275;-64
2021/03/07 02:23:00;;;;;;;10.70;6.90;;;;;;;-1.24;66.53;100223.72;1808973;79;21606;-62
2021/03/07 02:25:28;;;;;;;14.65;8.50;;;;;;;-1.30;66.64;100220.92;1808551;78;24386;-63
2021/03/07 02:27:59;;;;;;;11.87;7.97;;;;;;;-1.34;66.88;100217.27;1805027;79;21766;-63
2021/03/07 02:30:27;;;;;;;11.80;7.10;;;;;;;-1.33;66.87;100214.96;1804771;79;21157;-61
2021/03/07 02:33:18;;;;;;;10.53;7.23;;;;;;;-1.34;66.94;100208.02;1804954;79;21339;-62
2021/03/07 02:36:13;;;;;;;12.10;6.33;;;;;;;-1.31;67.02;100210.86;1804898;79;21164;-63
2021/03/07 02:38:43;;;;;;;19.23;10.67;;;;;;;-1.32;66.96;100194.19;1805037;79;21638;-62
2021/03/07 02:41:12;;;;;;;9.37;5.80;;;;;;;-1.30;66.96;100192.73;1804890;79;21164;-62
2021/03/07 02:43:43;;;;;;;9.57;5.33;;;;;;;-1.32;66.99;100177.53;1804880;79;21145;-63
2021/03/07 02:46:14;;;;;;;7.63;5.77;;;;;;;-1.29;66.95;100183.00;1804924;79;21204;-61
2021/03/07 02:48:46;;;;;;;9.03;5.83;;;;;;;-1.29;66.88;100181.16;1804962;79;21167;-61
2021/03/07 02:51:14;;;;;;;7.43;5.27;;;;;;;-1.27;66.85;100178.37;1804929;79;21041;-61
2021/03/07 02:53:42;;;;;;;7.67;6.20;;;;;;;-1.25;66.73;100169.81;1804998;79;21113;-63
2021/03/07 02:56:13;;;;;;;8.43;5.53;;;;;;;-1.24;66.72;100167.48;1774236;79;21093;-62
2021/03/07 02:58:41;;;;;;;12.43;6.07;;;;;;;-1.22;66.64;100156.28;1805097;79;21366;-62
2021/03/07 03:01:13;;;;;;;10.70;5.93;;;;;;;-1.20;66.57;100165.67;1804979;79;21173;-62
2021/03/07 03:03:42;;;;;;;8.35;6.58;;;;;;;-1.19;66.52;100158.58;1805214;78;21111;-62
2021/03/07 03:06:11;;;;;;;5.87;4.57;;;;;;;-1.19;66.48;100161.22;1805085;79;21609;-64
2021/03/07 03:08:39;;;;;;;8.73;6.17;;;;;;;-1.22;66.53;100157.11;1805019;78;21614;-62
2021/03/07 03:11:07;;;;;;;9.13;6.13;;;;;;;-1.24;66.52;100151.16;1804909;79;21427;-62
2021/03/07 03:13:36;;;;;;;8.60;5.40;;;;;;;-1.21;66.51;100149.53;1804887;79;21001;-62
2021/03/07 03:16:05;;;;;;;20.43;6.70;;;;;;;-1.17;66.40;100140.78;1804922;79;21587;-63
2021/03/07 03:18:35;;;;;;;13.57;6.13;;;;;;;-1.15;66.24;100127.74;1805081;79;21140;-64
2021/03/07 03:21:08;;;;;;;16.67;6.83;;;;;;;-1.13;66.10;100126.27;1805247;79;21573;-62
2021/03/07 03:23:35;;;;;;;18.77;11.12;;;;;;;-1.11;66.03;100117.22;1805284;79;21570;-61
2021/03/07 03:26:03;;;;;;;18.50;7.00;;;;;;;-1.08;65.92;100117.37;1804891;78;21629;-62
2021/03/07 03:28:32;;;;;;;16.83;6.60;;;;;;;-1.05;65.71;100107.79;1805024;79;21081;-63
2021/03/07 03:31:01;;;;;;;20.70;8.27;;;;;;;-1.00;65.51;100113.40;1804902;79;21128;-64
2021/03/07 03:33:28;;;;;;;18.03;7.50;;;;;;;-0.99;65.26;100089.98;1778537;78;21609;-62
2021/03/07 03:35:56;;;;;;;17.07;6.67;;;;;;;-0.99;65.10;100093.45;1773222;80;23530;-65
2021/03/07 03:38:41;;;;;;;10.13;5.07;;;;;;;-1.01;64.93;100083.53;1773229;80;21598;-63
2021/03/07 03:41:09;;;;;;;12.93;7.07;;;;;;;-1.01;64.87;100077.46;1794518;79;21581;-62
2021/03/07 03:43:40;;;;;;;14.10;5.33;;;;;;;-1.05;64.81;100072.16;1775595;78;21179;-62
2021/03/07 03:46:09;;;;;;;7.03;5.73;;;;;;;-1.07;64.83;100071.52;1773441;80;21549;-63
2021/03/07 03:48:41;;;;;;;20.53;7.80;;;;;;;-1.07;64.77;100064.43;1773337;80;21575;-64
2021/03/07 03:51:10;;;;;;;17.73;7.47;;;;;;;-1.06;64.74;100061.30;1773280;80;21164;-62
2021/03/07 03:53:38;;;;;;;11.73;7.30;;;;;;;-1.04;64.67;100053.53;1773272;80;21148;-62
2021/03/07 03:56:05;;;;;;;13.90;7.37;;;;;;;-1.01;64.55;100049.75;1768053;80;21554;-63
2021/03/07 03:58:39;;;;;;;10.37;5.57;;;;;;;-1.02;64.42;100039.68;1773141;80;21140;-63
2021/03/07 04:01:07;;;;;;;8.57;5.23;;;;;;;-1.01;64.32;100043.14;1773391;80;21530;-64
2021/03/07 04:03:35;;;;;;;9.67;5.80;;;;;;;-1.00;64.29;100027.61;1743236;80;21709;-63
2021/03/07 04:06:04;;;;;;;11.43;5.40;;;;;;;-1.01;64.27;100027.31;1773252;80;21153;-62
2021/03/07 04:08:32;;;;;;;10.53;6.50;;;;;;;-1.04;64.27;100023.66;1773219;80;22432;-62
2021/03/07 04:10:59;;;;;;;13.87;7.73;;;;;;;-1.03;64.22;100021.36;1773242;80;21149;-62
2021/03/07 04:13:27;;;;;;;11.17;6.90;;;;;;;-1.02;64.24;100013.28;1773183;80;21380;-62
2021/03/07 04:15:55;;;;;;;10.60;5.93;;;;;;;-0.99;64.16;100012.11;1773189;80;21136;-64
2021/03/07 04:18:25;;;;;;;9.20;5.70;;;;;;;-0.96;64.11;100005.99;1773176;80;21163;-61
2021/03/07 04:20:53;;;;;;;8.37;5.00;;;;;;;-0.95;64.05;99993.13;1773211;80;21572;-61
2021/03/07 04:23:21;;;;;;;10.33;6.93;;;;;;;-0.91;63.95;99998.39;1773325;80;21606;-63
2021/03/07 04:25:49;;;;;;;10.53;7.67;;;;;;;-0.90;63.86;99988.66;1773118;80;21618;-64
2021/03/07 04:28:17;;;;;;;8.73;6.20;;;;;;;-0.87;63.86;99989.66;1773162;80;21105;-62
2021/03/07 04:30:45;;;;;;;14.93;6.93;;;;;;;-0.82;63.76;99979.91;1773238;81;21175;-62
2021/03/07 04:33:12;;;;;;;12.47;7.23;;;;;;;-0.80;63.71;99973.95;1743108;81;21108;-63
2021/03/07 04:35:40;;;;;;;8.70;5.60;;;;;;;-0.79;63.67;99959.27;1773186;80;21112;-62
2021/03/07 04:38:08;;;;;;;11.10;6.50;;;;;;;-0.77;63.39;99965.22;1773231;80;21365;-62
2021/03/07 04:40:37;;;;;;;7.87;6.30;;;;;;;-0.79;63.43;99950.52;1743485;80;21637;-62
2021/03/07 04:43:06;;;;;;;13.50;7.13;;;;;;;-0.89;63.49;99944.94;1773329;80;21108;-61
2021/03/07 04:45:34;;;;;;;9.90;5.73;;;;;;;-0.88;63.55;99945.77;1773110;80;21633;-63
2021/03/07 04:48:04;;;;;;;10.70;7.30;;;;;;;-0.83;63.46;99946.58;1772993;80;21120;-61
2021/03/07 04:50:33;;;;;;;10.00;5.93;;;;;;;-0.80;63.41;99943.59;1773464;80;21555;-62
2021/03/07 04:53:00;;;;;;;8.07;5.53;;;;;;;-0.76;63.24;99942.24;1773307;80;21148;-63
2021/03/07 04:55:28;;;;;;;10.50;6.40;;;;;;;-0.75;63.06;99923.59;1773274;80;21021;-62
2021/03/07 04:57:56;;;;;;;11.73;7.10;;;;;;;-0.73;63.08;99922.95;1773237;80;21144;-62
2021/03/07 05:00:24;;;;;;;13.40;7.10;;;;;;;-0.70;63.06;99921.27;1773242;80;21203;-63
2021/03/07 05:02:52;;;;;;;10.30;6.93;;;;;;;-0.68;62.99;99927.22;1773250;80;21273;-62
2021/03/07 05:05:20;;;;;;;13.57;7.83;;;;;;;-0.66;62.89;99929.17;1773076;80;21160;-62
2021/03/07 05:07:47;;;;;;;11.57;7.03;;;;;;;-0.65;62.81;99926.03;1773270;80;21676;-62
2021/03/07 05:10:15;;;;;;;11.43;7.20;;;;;;;-0.63;62.73;99925.37;1773224;80;21616;-63
2021/03/07 05:12:43;;;;;;;10.83;6.40;;;;;;;-0.60;62.66;99922.38;1773315;80;21589;-62
2021/03/07 05:15:12;;;;;;;10.43;6.00;;;;;;;-0.56;62.58;99919.72;1773268;80;21192;-61
2021/03/07 05:17:39;;;;;;;8.23;6.07;;;;;;;-0.53;62.43;99919.39;1773035;80;21592;-64
2021/03/07 05:20:09;;;;;;;8.27;6.77;;;;;;;-0.51;62.37;99912.09;1773330;80;21565;-62
2021/03/07 05:22:37;;;;;;;7.43;5.73;;;;;;;-0.51;62.34;99902.85;1773405;80;21606;-63
2021/03/07 05:25:07;;;;;;;12.37;7.77;;;;;;;-0.48;62.28;99912.56;1773375;80;21590;-62
2021/03/07 05:27:36;;;;;;;12.27;8.40;;;;;;;-0.44;62.15;99901.17;1773572;79;21254;-62
2021/03/07 05:32:46;;;;;;;11.63;6.40;;;;;;;-0.41;62.11;99907.91;1876464;76;21565;-62
2021/03/07 05:35:16;;;;;;;9.60;7.37;;;;;;;-0.41;62.06;99892.89;1876050;76;21771;-63
2021/03/07 05:37:44;;;;;;;13.80;8.03;;;;;;;-0.38;62.17;99900.98;1876183;76;21113;-62
2021/03/07 05:40:12;;;;;;;19.43;7.30;;;;;;;-0.35;62.17;99893.52;1875971;76;21586;-63
2021/03/07 05:42:40;;;;;;;15.67;8.93;;;;;;;-0.32;62.09;99882.59;1876070;76;21137;-64
2021/03/07 05:45:11;;;;;;;16.70;9.37;;;;;;;-0.28;62.04;99885.20;1873822;76;21170;-61
2021/03/07 05:47:40;;;;;;;29.27;9.97;;;;;;;-0.26;62.07;99892.97;1876192;76;21712;-64
2021/03/07 05:50:10;;;;;;;26.43;8.83;;;;;;;-0.25;62.06;99886.20;1876087;76;21089;-62
2021/03/07 05:52:37;;;;;;;18.93;10.13;;;;;;;-0.24;62.17;99872.48;1876265;76;21523;-65
2021/03/07 05:55:07;;;;;;;24.63;9.03;;;;;;;-0.22;62.25;99875.76;1875991;76;21860;-63
2021/03/07 05:57:34;;;;;;;24.67;9.40;;;;;;;-0.18;62.12;99869.94;1876208;76;21530;-63
2021/03/07 06:00:05;;;;;;;19.50;8.67;;;;;;;-0.15;62.14;99859.53;1876088;76;21105;-62
2021/03/07 06:02:32;;;;;;;21.53;11.30;;;;;;;-0.12;62.25;99859.99;1876080;76;21081;-61
2021/03/07 06:05:00;;;;;;;26.87;11.43;;;;;;;-0.06;62.40;99859.79;1876120;76;22625;-63
2021/03/07 06:07:30;;;;;;;25.60;10.53;;;;;;;-0.03;62.34;99851.49;1875409;75;21026;-63
2021/03/07 06:10:18;;;;;;;18.80;8.27;;;;;;;0.01;62.39;99852.78;1876123;76;20994;-61
2021/03/07 06:13:09;;;;;;;26.07;9.03;;;;;;;0.05;62.25;99869.13;1876110;76;20990;-63
2021/03/07 06:15:42;;;;;;;24.03;11.07;;;;;;;0.08;62.16;99843.14;1872616;76;21125;-62
2021/03/07 06:18:20;;;;;;;26.33;9.33;;;;;;;0.13;62.20;99838.64;1876141;76;21186;-64
2021/03/07 06:20:53;;;;;;;24.33;10.63;;;;;;;0.20;61.98;99831.63;1876048;76;21125;-64
2021/03/07 06:23:36;;;;;;;32.10;10.93;;;;;;;0.21;61.60;99819.55;1876114;76;20999;-63
2021/03/07 06:26:11;;;;;;;28.42;11.88;;;;;;;0.23;61.68;99817.56;1876190;76;25112;-62
2021/03/07 06:28:39;;;;;;;28.10;11.63;;;;;;;0.24;61.74;99824.47;1876078;76;21246;-62
2021/03/07 06:31:30;;;;;;;16.73;9.60;;;;;;;0.31;61.71;99825.91;1875933;76;21374;-65
2021/03/07 06:33:59;;;;;;;18.20;10.63;;;;;;;0.34;61.43;99814.95;1876626;76;21157;-63
2021/03/07 06:36:27;;;;;;;15.77;9.60;;;;;;;0.31;61.29;99810.86;1876084;76;22315;-63
2021/03/07 06:38:57;;;;;;;22.07;11.67;;;;;;;0.33;61.40;99822.09;1876047;76;21089;-64
2021/03/07 06:41:28;;;;;;;19.90;8.47;;;;;;;0.36;61.30;99808.49;1875978;76;21156;-61
2021/03/07 06:44:13;;;;;;;24.47;12.50;;;;;;;0.42;61.11;99813.56;1876013;76;21350;-64
2021/03/07 06:46:44;;;;;;;19.77;9.03;;;;;;;0.42;61.17;99797.19;1874924;76;21045;-62
2021/03/07 06:49:27;;;;;;;18.80;9.90;;;;;;;0.48;61.11;99789.00;1875816;76;21033;-61
2021/03/07 06:52:12;;;;;;;23.38;9.53;;;;;;;0.50;60.92;99805.53;1876100;76;20979;-61
2021/03/07 06:54:44;;;;;;;14.30;9.83;;;;;;;0.55;60.76;99795.72;1876039;76;21045;-61
2021/03/07 06:57:12;;;;;;;15.00;9.50;;;;;;;0.59;60.60;99795.17;1876014;76;21189;-61
2021/03/07 06:59:48;;;;;;;14.17;9.40;;;;;;;0.59;60.57;99784.59;1829906;76;21539;-61
2021/03/07 07:02:15;;;;;;;9.33;7.07;;;;;;;0.61;60.61;99785.23;1876121;76;21144;-60
2021/03/07 07:04:44;;;;;;;17.53;8.97;;;;;;;0.64;60.55;99794.12;1875977;76;20986;-62
2021/03/07 07:07:17;;;;;;;14.80;8.10;;;;;;;0.64;60.47;99791.47;1876182;75;21601;-60
2021/03/07 07:09:47;;;;;;;13.70;9.60;;;;;;;0.65;60.54;99770.63;1876033;76;21365;-61
2021/03/07 07:12:21;;;;;;;14.20;9.33;;;;;;;0.68;60.54;99809.13;1876008;76;21148;-61
2021/03/07 07:14:50;;;;;;;16.93;9.87;;;;;;;0.68;60.69;99770.25;1875365;75;21562;-62
2021/03/07 07:17:19;;;;;;;15.40;9.20;;;;;;;0.70;60.64;99762.13;1882135;75;21193;-63
2021/03/07 07:19:47;;;;;;;12.80;7.93;;;;;;;0.73;60.80;99751.98;1899705;75;21536;-62
2021/03/07 07:22:16;;;;;;;15.10;8.20;;;;;;;0.77;60.85;99765.17;1884446;75;21368;-64
2021/03/07 07:24:44;;;;;;;13.40;8.90;;;;;;;0.84;60.76;99763.94;1875612;76;21137;-63
2021/03/07 07:27:13;;;;;;;13.27;8.43;;;;;;;0.86;60.63;99785.23;1875861;76;21633;-62
2021/03/07 07:29:41;;;;;;;17.53;9.03;;;;;;;0.91;60.77;99787.36;1875528;76;21133;-62
2021/03/07 07:32:16;;;;;;;15.93;9.37;;;;;;;0.95;60.71;99738.31;1875685;75;21196;-67
2021/03/07 07:34:57;;;;;;;12.57;9.10;;;;;;;0.99;60.71;99739.58;1862812;76;21941;-64
2021/03/07 07:37:47;;;;;;;16.63;9.20;;;;;;;1.01;60.75;99734.10;1858243;77;20975;-66
2021/03/07 07:40:16;;;;;;;16.00;9.27;;;;;;;1.01;60.78;99774.61;1858558;77;21173;-64
2021/03/07 07:43:01;;;;;;;13.03;8.80;;;;;;;1.04;60.68;99745.63;1858582;77;21121;-60
2021/03/07 07:45:30;;;;;;;17.73;8.40;;;;;;;1.09;60.75;99722.88;1858291;77;21161;-61
2021/03/07 07:47:58;;;;;;;14.33;9.20;;;;;;;1.16;60.66;99724.25;1858667;77;22101;-62
2021/03/07 07:50:35;;;;;;;16.60;7.80;;;;;;;1.21;60.64;99711.27;1858724;77;21562;-66
2021/03/07 07:53:14;;;;;;;11.83;8.93;;;;;;;1.22;60.37;99718.21;1858372;77;21176;-67
2021/03/07 07:55:50;;;;;;;14.73;7.97;;;;;;;1.27;60.42;99710.52;1858744;77;22247;-64
2021/03/07 07:58:43;;;;;;;14.10;9.73;;;;;;;1.30;60.39;99704.83;1858668;77;21188;-65
2021/03/07 08:01:13;;;;;;;17.82;11.08;;;;;;;1.37;60.31;99733.55;1856243;77;21135;-63
2021/03/07 08:03:49;;;;;;;20.50;9.73;;;;;;;1.45;60.24;99697.63;1858551;77;21021;-65
2021/03/07 08:06:32;;;;;;;16.10;8.90;;;;;;;1.48;59.79;99722.45;1858720;77;21140;-62
2021/03/07 08:09:00;;;;;;;14.30;9.33;;;;;;;1.49;59.72;99704.19;1858886;77;21176;-63
2021/03/07 08:11:29;;;;;;;15.73;7.63;;;;;;;1.49;59.74;99716.61;1900486;75;21073;-63
2021/03/07 08:13:59;;;;;;;11.30;8.77;;;;;;;1.47;59.67;99684.20;1907931;75;21178;-64
2021/03/07 08:16:43;;;;;;;19.20;10.00;;;;;;;1.43;59.82;99674.50;1907937;75;21207;-62
2021/03/07 08:19:15;;;;;;;12.37;9.07;;;;;;;1.45;59.75;99685.71;1908420;75;21137;-61
2021/03/07 08:22:06;;;;;;;13.50;9.97;;;;;;;1.47;59.84;99680.23;1908277;75;21573;-63
2021/03/07 08:24:56;;;;;;;12.13;8.73;;;;;;;1.48;59.86;99656.20;1877549;75;36329;-63
2021/03/07 08:27:39;;;;;;;10.17;7.77;;;;;;;1.52;59.86;99687.11;1908450;75;21357;-63
2021/03/07 08:30:11;;;;;;;9.40;7.28;;;;;;;1.52;59.71;99673.85;1908468;75;21527;-63
2021/03/07 08:32:41;;;;;;;14.27;7.93;;;;;;;1.50;59.80;99679.34;1907139;75;21133;-63
2021/03/07 08:35:16;;;;;;;12.63;7.83;;;;;;;1.49;59.88;99667.59;1908563;75;21100;-67
2021/03/07 08:38:14;;;;;;;14.03;8.77;;;;;;;1.50;59.95;99666.08;1908369;75;21125;-65
2021/03/07 08:40:56;;;;;;;18.23;10.23;;;;;;;1.53;60.01;99655.63;1908426;75;20989;-64
2021/03/07 08:43:30;;;;;;;12.47;8.70;;;;;;;1.55;59.98;99647.78;1908412;75;21109;-65
2021/03/07 08:46:08;;;;;;;13.57;8.67;;;;;;;1.57;60.04;99654.22;1908539;75;21085;-62
2021/03/07 08:48:40;;;;;;;13.10;8.57;;;;;;;1.59;59.96;99660.95;1908472;75;21136;-65
2021/03/07 08:51:09;;;;;;;12.23;7.50;;;;;;;1.59;59.89;99683.98;1908468;75;21206;-64
2021/03/07 08:53:39;;;;;;;12.07;9.30;;;;;;;1.60;59.86;99697.56;1908531;75;21445;-65
2021/03/07 08:56:07;;;;;;;11.40;8.50;;;;;;;1.61;59.89;99648.84;1908377;75;21013;-64
2021/03/07 08:58:36;;;;;;;14.93;8.70;;;;;;;1.62;59.91;99653.96;1908275;75;21145;-64
2021/03/07 09:01:04;;;;;;;11.83;8.70;;;;;;;1.66;59.92;99618.60;1908466;75;21279;-65
2021/03/07 09:03:40;;;;;;;12.27;8.77;;;;;;;1.70;59.73;99663.59;1898490;75;21579;-61
2021/03/07 09:06:10;;;;;;;14.73;8.67;;;;;;;1.74;60.32;99653.72;1870326;76;21350;-64
2021/03/07 09:08:40;;;;;;;10.07;7.93;;;;;;;1.83;60.02;99633.17;1870292;76;21028;-64
2021/03/07 09:11:09;;;;;;;14.07;8.03;;;;;;;1.84;59.49;99650.73;1870439;76;21131;-63
2021/03/07 09:13:50;;;;;;;15.00;7.80;;;;;;;1.85;59.56;99655.02;1870368;76;21119;-64
2021/03/07 09:16:18;;;;;;;13.17;8.33;;;;;;;1.86;59.48;99624.85;1870585;76;21644;-63
2021/03/07 09:18:47;;;;;;;12.67;8.37;;;;;;;1.87;59.54;99619.84;1870330;76;21162;-64
2021/03/07 09:21:16;;;;;;;18.90;8.93;;;;;;;1.88;59.57;99625.95;1869784;76;21111;-62
2021/03/07 09:23:48;;;;;;;11.93;8.23;;;;;;;1.88;59.48;99626.78;1870471;76;21088;-62
2021/03/07 09:26:21;;;;;;;17.73;9.23;;;;;;;1.88;59.66;99602.91;1870665;76;21138;-65
2021/03/07 09:28:54;;;;;;;10.13;8.08;;;;;;;1.90;59.62;99650.46;1870773;76;26613;-65
2021/03/07 09:31:24;;;;;;;13.68;8.30;;;;;;;1.91;59.47;99609.67;1870854;76;21588;-63
2021/03/07 09:33:57;;;;;;;12.10;7.33;;;;;;;1.92;59.47;99631.21;1869230;76;21115;-64
2021/03/07 09:36:27;;;;;;;11.77;8.97;;;;;;;1.92;59.39;99629.34;1870681;76;21530;-64
2021/03/07 09:39:00;;;;;;;10.73;7.70;;;;;;;1.93;59.37;99603.15;1875725;75;21010;-61
2021/03/07 09:41:41;;;;;;;14.73;8.33;;;;;;;1.92;59.55;99613.44;1863899;76;21113;-63
2021/03/07 09:44:21;;;;;;;12.30;7.93;;;;;;;1.94;59.61;99631.81;1876044;76;21891;-63
2021/03/07 09:46:52;;;;;;;11.97;6.73;;;;;;;1.95;59.65;99618.38;1875094;76;21654;-63
2021/03/07 09:49:23;;;;;;;12.10;8.30;;;;;;;1.96;59.67;99629.80;1875913;76;20959;-63
2021/03/07 09:51:52;;;;;;;17.20;8.07;;;;;;;1.99;59.66;99609.51;1876073;76;21597;-65
2021/03/07 09:54:20;;;;;;;11.67;7.53;;;;;;;2.03;59.73;99613.40;1875679;76;21124;-63
2021/03/07 09:56:52;;;;;;;12.70;7.90;;;;;;;2.06;59.62;99603.20;1875920;76;21344;-61
2021/03/07 09:59:25;;;;;;;10.77;7.70;;;;;;;2.10;59.65;99617.73;1875837;76;21101;-62
2021/03/07 10:02:04;;;;;;;12.10;7.72;;;;;;;2.14;59.56;99604.89;1875909;76;21096;-62
2021/03/07 10:04:42;;;;;;;12.17;7.63;;;;;;;2.19;59.56;99614.41;1875915;76;20974;-66
2021/03/07 10:07:18;;;;;;;12.50;9.87;;;;;;;2.17;59.45;99618.57;1875951;76;21089;-65
2021/03/07 10:10:18;;;;;;;14.63;8.53;;;;;;;2.21;59.48;99624.30;1875777;76;22351;-64
2021/03/07 10:12:57;;;;;;;10.53;7.77;;;;;;;2.24;59.37;99601.36;1875823;76;21097;-64
2021/03/07 10:15:40;;;;;;;11.03;8.40;;;;;;;2.28;59.43;99595.97;1875746;76;21143;-61
2021/03/07 10:18:17;;;;;;;9.50;7.40;;;;;;;2.30;59.36;99592.62;1868135;76;21007;-63
2021/03/07 10:20:51;;;;;;;9.60;7.60;;;;;;;2.32;59.21;99616.28;1875813;76;21462;-64
2021/03/07 10:23:20;;;;;;;11.77;7.93;;;;;;;2.31;59.13;99596.88;1875769;76;21321;-63
2021/03/07 10:25:48;;;;;;;11.47;9.00;;;;;;;2.33;59.25;99579.45;1817248;76;21878;-64
2021/03/07 10:28:24;;;;;;;15.78;8.75;;;;;;;2.33;59.22;99573.63;1873701;76;21105;-62
2021/03/07 10:30:53;;;;;;;12.47;8.43;;;;;;;2.35;59.34;99586.17;1875729;76;21117;-62
2021/03/07 10:33:29;;;;;;;13.60;9.45;;;;;;;2.35;59.16;99556.98;1865514;75;21195;-63
2021/03/07 10:36:17;;;;;;;10.80;7.70;;;;;;;2.37;59.10;99557.62;1840961;77;21123;-64
2021/03/07 10:38:49;;;;;;;12.80;8.35;;;;;;;2.37;59.13;99561.59;1840670;78;21155;-64
2021/03/07 10:41:31;;;;;;;9.30;7.78;;;;;;;2.39;59.22;99554.77;1841088;78;21119;-67
2021/03/07 10:44:08;;;;;;;9.90;8.25;;;;;;;2.35;59.32;99541.06;1841107;78;21623;-64
2021/03/07 10:46:41;;;;;;;11.68;7.95;;;;;;;2.32;59.49;99539.33;1840784;78;21059;-63
2021/03/07 10:49:11;;;;;;;9.90;8.08;;;;;;;2.33;59.60;99563.53;1838285;78;22820;-65
2021/03/07 10:51:39;;;;;;;12.35;7.83;;;;;;;2.32;59.61;99542.80;1840903;77;21044;-62
2021/03/07 10:54:07;;;;;;;9.33;7.57;;;;;;;2.32;59.62;99555.25;1784485;78;21024;-65
2021/03/07 10:59:14;;;;;;;10.37;7.83;;;;;;;2.38;59.62;99565.07;1846916;76;22610;-64
2021/03/07 11:01:43;;;;;;;8.83;7.12;;;;;;;2.37;59.79;99523.63;1816914;79;21023;-62
2021/03/07 11:04:12;;;;;;;12.87;8.47;;;;;;;2.40;59.76;99504.13;1787406;79;21385;-61
2021/03/07 11:06:39;;;;;;;12.68;6.75;;;;;;;2.44;59.71;99508.55;1774776;80;21059;-65
2021/03/07 11:09:09;;;;;;;11.20;7.10;;;;;;;2.47;59.64;99494.86;1773993;80;21196;-62
2021/03/07 11:11:37;;;;;;;15.40;10.70;;;;;;;2.46;59.58;99536.50;1767547;80;21619;-61
2021/03/07 11:14:05;;;;;;;15.72;9.45;;;;;;;2.48;59.65;99502.63;1780972;80;21035;-63
2021/03/07 11:16:34;;;;;;;10.80;8.15;;;;;;;2.44;59.85;99537.23;1770967;80;21389;-62
2021/03/07 11:19:03;;;;;;;19.30;9.30;;;;;;;2.45;59.79;99500.87;1771347;80;21061;-63
2021/03/07 11:21:32;;;;;;;8.88;7.90;;;;;;;2.44;59.83;99490.80;1779598;80;21015;-64
2021/03/07 11:24:00;;;;;;;11.22;8.70;;;;;;;2.48;59.90;99493.84;1784770;80;21149;-60
2021/03/07 11:26:28;;;;;;;12.13;8.07;;;;;;;2.45;59.86;99528.23;1784682;80;21133;-64
2021/03/07 11:28:56;;;;;;;12.53;8.65;;;;;;;2.42;59.84;99518.03;1784549;80;22418;-63
2021/03/07 11:31:24;;;;;;;13.13;7.08;;;;;;;2.38;60.00;99508.84;1784540;80;21673;-60
2021/03/07 11:33:52;;;;;;;14.63;10.85;;;;;;;2.38;60.04;99480.16;1768836;80;21016;-63
2021/03/07 11:36:20;;;;;;;10.68;7.10;;;;;;;2.38;60.08;99491.59;1753302;81;21015;-62
2021/03/07 11:38:49;;;;;;;14.35;8.25;;;;;;;2.41;60.05;99500.97;1753393;81;21198;-62
2021/03/07 11:41:17;;;;;;;11.45;7.22;;;;;;;2.44;60.08;99471.39;1753481;81;21373;-63
2021/03/07 11:43:45;;;;;;;8.20;6.40;;;;;;;2.48;59.96;99464.15;1753398;81;21225;-63
2021/03/07 11:46:13;;;;;;;11.53;8.25;;;;;;;2.52;59.69;99491.91;1753522;81;21185;-64
2021/03/07 11:48:41;;;;;;;9.30;6.85;;;;;;;2.54;59.48;99467.83;1753467;81;21166;-63
2021/03/07 11:51:09;;;;;;;8.20;6.87;;;;;;;2.54;59.45;99473.14;1753372;81;21190;-65